createdAt,value
2018-09-14T00:01:35.256Z,11.90
2018-09-14T00:04:04.703Z,13.70
2018-09-14T00:06:34.025Z,13.80
2018-09-14T00:09:03.243Z,11.80
2018-09-14T00:11:32.284Z,13.47
2018-09-14T00:14:01.426Z,11.10
2018-09-14T00:16:30.481Z,11.33
2018-09-14T00:18:59.540Z,17.30
2018-09-14T00:21:28.879Z,16.70
2018-09-14T00:23:58.100Z,11.93
2018-09-14T00:26:27.352Z,13.67
2018-09-14T00:28:56.714Z,15.03
2018-09-14T00:31:25.840Z,17.40
2018-09-14T00:33:54.879Z,16.67
2018-09-14T00:36:24.129Z,15.73
2018-09-14T00:38:53.312Z,14.27
2018-09-14T00:41:22.329Z,15.50
2018-09-14T00:43:51.357Z,13.23
2018-09-14T00:46:20.772Z,14.37
2018-09-14T00:48:50.012Z,16.40
2018-09-14T00:51:19.295Z,14.40
2018-09-14T00:53:48.367Z,15.00
2018-09-14T00:56:17.629Z,13.83
2018-09-14T00:58:46.907Z,14.20
2018-09-14T01:01:17.137Z,12.53
2018-09-14T01:03:46.761Z,15.77
2018-09-14T01:06:16.037Z,14.60
2018-09-14T01:08:45.633Z,10.70
2018-09-14T01:11:14.719Z,12.73
2018-09-14T01:13:43.984Z,12.53
2018-09-14T01:16:13.128Z,15.00
2018-09-14T01:18:42.560Z,11.00
2018-09-14T01:21:11.882Z,12.00
2018-09-14T01:23:41.226Z,11.57
2018-09-14T01:26:10.377Z,17.47
2018-09-14T01:28:39.806Z,11.20
2018-09-14T01:31:08.964Z,9.90
2018-09-14T01:33:38.450Z,10.23
2018-09-14T01:36:10.704Z,10.77
2018-09-14T01:38:40.577Z,12.87
2018-09-14T01:41:09.842Z,11.67
2018-09-14T01:43:39.772Z,13.27
2018-09-14T01:46:09.420Z,14.57
2018-09-14T01:48:39.031Z,13.83
2018-09-14T01:51:08.917Z,13.97
2018-09-14T01:53:38.444Z,15.67
2018-09-14T01:56:07.662Z,15.43
2018-09-14T01:58:36.834Z,15.10
2018-09-14T02:01:05.985Z,14.90
2018-09-14T02:03:35.433Z,22.60
2018-09-14T02:06:04.556Z,22.77
2018-09-14T02:08:35.424Z,24.53
2018-09-14T02:11:05.098Z,23.33
2018-09-14T02:13:34.999Z,28.60
2018-09-14T02:16:03.971Z,20.50
2018-09-14T02:18:33.031Z,18.70
2018-09-14T02:21:02.159Z,18.53
2018-09-14T02:23:31.190Z,18.60
2018-09-14T02:26:00.394Z,17.47
2018-09-14T02:28:29.726Z,14.97
2018-09-14T02:30:58.768Z,16.20
2018-09-14T02:33:28.135Z,14.67
2018-09-14T02:35:57.170Z,20.30
2018-09-14T02:38:26.631Z,27.90
2018-09-14T02:40:55.854Z,22.73
2018-09-14T02:43:26.300Z,18.33
2018-09-14T02:45:55.436Z,17.10
2018-09-14T02:48:25.264Z,15.87
2018-09-14T02:50:54.266Z,17.27
2018-09-14T02:53:23.234Z,28.47
2018-09-14T02:55:52.304Z,30.37
2018-09-14T02:58:21.472Z,26.50
2018-09-14T03:00:50.826Z,21.73
2018-09-14T03:03:19.973Z,30.53
2018-09-14T03:05:49.071Z,29.23
2018-09-14T03:08:18.124Z,25.90
2018-09-14T03:10:47.155Z,27.13
2018-09-14T03:13:16.319Z,24.33
2018-09-14T03:15:45.568Z,23.33
2018-09-14T03:18:14.757Z,23.33
2018-09-14T03:20:43.960Z,21.37
2018-09-14T03:23:13.191Z,18.73
2018-09-14T03:25:42.466Z,17.43
2018-09-14T03:28:11.802Z,19.80
2018-09-14T03:30:47.253Z,22.20
2018-09-14T03:33:16.370Z,20.77
2018-09-14T03:35:45.571Z,18.63
2018-09-14T03:38:14.609Z,20.07
2018-09-14T03:40:43.703Z,17.27
2018-09-14T03:43:12.910Z,18.17
2018-09-14T03:45:42.349Z,24.00
2018-09-14T03:48:11.447Z,17.97
2018-09-14T03:50:40.639Z,16.30
2018-09-14T03:53:09.710Z,15.30
2018-09-14T03:55:38.877Z,16.17
2018-09-14T03:58:08.034Z,16.30
2018-09-14T04:00:37.230Z,18.00
2018-09-14T04:03:06.858Z,15.97
2018-09-14T04:05:36.160Z,14.63
2018-09-14T04:08:05.509Z,15.53
2018-09-14T04:10:34.673Z,14.57
2018-09-14T04:13:03.877Z,14.60
2018-09-14T04:15:32.914Z,14.57
2018-09-14T04:18:02.164Z,14.07
2018-09-14T04:20:31.595Z,13.10
2018-09-14T04:23:00.711Z,13.90
2018-09-14T04:25:29.855Z,13.17
2018-09-14T04:27:59.073Z,13.27
2018-09-14T04:30:28.441Z,14.47
2018-09-14T04:32:57.695Z,13.97
2018-09-14T04:35:26.990Z,13.80
2018-09-14T04:37:56.330Z,13.97
2018-09-14T04:40:25.531Z,15.30
2018-09-14T04:42:54.815Z,14.40
2018-09-14T04:45:24.442Z,14.30
2018-09-14T04:47:54.003Z,13.43
2018-09-14T04:50:23.594Z,14.23
2018-09-14T04:52:52.973Z,15.00
2018-09-14T04:55:22.785Z,13.27
2018-09-14T04:57:52.302Z,13.10
2018-09-14T05:00:21.622Z,15.23
2018-09-14T05:02:50.928Z,12.20
2018-09-14T05:05:20.214Z,17.40
2018-09-14T05:07:49.350Z,15.53
2018-09-14T05:10:18.477Z,14.97
2018-09-14T05:12:47.736Z,16.30
2018-09-14T05:15:16.988Z,17.03
2018-09-14T05:17:46.057Z,14.90
2018-09-14T05:20:15.244Z,13.90
2018-09-14T05:22:44.485Z,14.87
2018-09-14T05:25:13.834Z,14.50
2018-09-14T05:27:43.012Z,12.97
2018-09-14T05:30:12.091Z,14.53
2018-09-14T05:32:41.444Z,13.80
2018-09-14T05:35:10.689Z,13.70
2018-09-14T05:37:40.799Z,13.77
2018-09-14T05:40:09.964Z,13.10
2018-09-14T05:42:39.352Z,14.13
2018-09-14T05:45:08.796Z,12.90
2018-09-14T05:47:38.067Z,12.43
2018-09-14T05:50:07.329Z,13.90
2018-09-14T05:52:36.545Z,14.20
2018-09-14T05:55:05.957Z,12.67
2018-09-14T05:57:38.171Z,12.90
2018-09-14T06:00:07.743Z,12.03
2018-09-14T06:02:36.995Z,11.30
2018-09-14T06:05:06.741Z,9.77
2018-09-14T06:07:36.507Z,11.33
2018-09-14T06:10:06.751Z,12.53
2018-09-14T06:12:35.923Z,11.33
2018-09-14T06:15:05.124Z,12.93
2018-09-14T06:17:34.397Z,11.90
2018-09-14T06:20:03.756Z,12.47
2018-09-14T06:22:33.105Z,11.90
2018-09-14T06:25:02.381Z,10.70
2018-09-14T06:27:31.679Z,11.80
2018-09-14T06:30:01.004Z,12.63
2018-09-14T06:32:30.289Z,12.60
2018-09-14T06:34:59.533Z,12.83
2018-09-14T06:37:28.638Z,13.63
2018-09-14T06:39:57.895Z,13.33
2018-09-14T06:42:27.139Z,15.47
2018-09-14T06:44:57.036Z,15.50
2018-09-14T06:47:26.066Z,16.07
2018-09-14T06:49:55.156Z,14.87
2018-09-14T06:52:24.462Z,14.13
2018-09-14T06:54:53.687Z,13.97
2018-09-14T06:57:23.572Z,15.80
2018-09-14T06:59:52.866Z,16.00
2018-09-14T07:02:22.126Z,13.17
2018-09-14T07:04:51.412Z,14.57
2018-09-14T07:07:20.660Z,15.80
2018-09-14T07:09:50.114Z,16.37
2018-09-14T07:12:19.482Z,15.23
2018-09-14T07:14:48.750Z,17.00
2018-09-14T07:17:18.022Z,15.97
2018-09-14T07:19:47.326Z,17.83
2018-09-14T07:22:16.636Z,17.30
2018-09-14T07:24:46.127Z,15.17
2018-09-14T07:27:15.143Z,16.97
2018-09-14T07:29:44.687Z,16.03
2018-09-14T07:32:14.197Z,17.10
2018-09-14T07:34:43.442Z,16.30
2018-09-14T07:37:12.756Z,15.47
2018-09-14T07:39:42.111Z,15.30
2018-09-14T07:42:11.458Z,15.43
2018-09-14T07:44:40.743Z,14.13
2018-09-14T07:47:10.060Z,11.67
2018-09-14T07:49:39.282Z,11.50
2018-09-14T07:52:08.639Z,13.00
2018-09-14T07:54:38.357Z,11.70
2018-09-14T07:57:07.648Z,13.43
2018-09-14T07:59:37.396Z,11.10
2018-09-14T08:02:06.657Z,14.20
2018-09-14T08:04:35.972Z,14.07
2018-09-14T08:07:05.469Z,12.10
2018-09-14T08:09:34.965Z,11.00
2018-09-14T08:12:04.618Z,9.83
2018-09-14T08:14:33.804Z,12.13
2018-09-14T08:17:03.173Z,11.13
2018-09-14T08:19:32.404Z,14.60
2018-09-14T08:22:01.871Z,12.67
2018-09-14T08:24:31.152Z,11.23
2018-09-14T08:27:00.580Z,12.87
2018-09-14T08:29:29.954Z,12.00
2018-09-14T08:31:59.135Z,12.50
2018-09-14T08:34:28.359Z,11.10
2018-09-14T08:36:57.646Z,12.57
2018-09-14T08:39:26.855Z,9.33
2018-09-14T08:41:56.171Z,13.80
2018-09-14T08:44:25.477Z,11.30
2018-09-14T08:46:54.869Z,9.13
2018-09-14T08:49:24.350Z,9.03
2018-09-14T08:51:53.911Z,9.20
2018-09-14T08:54:23.375Z,13.65
2018-09-14T08:56:52.776Z,12.73
2018-09-14T08:59:22.082Z,8.95
2018-09-14T09:01:51.477Z,9.45
2018-09-14T09:04:20.620Z,9.43
2018-09-14T09:06:50.150Z,6.50
2018-09-14T09:09:19.511Z,8.38
2018-09-14T09:11:48.882Z,6.37
2018-09-14T09:14:18.012Z,6.30
2018-09-14T09:16:47.220Z,10.28
2018-09-14T09:19:16.454Z,7.40
2018-09-14T09:21:45.650Z,8.18
2018-09-14T09:24:14.854Z,6.53
2018-09-14T09:26:44.194Z,6.03
2018-09-14T09:29:13.630Z,5.92
2018-09-14T09:31:42.657Z,6.55
2018-09-14T09:34:11.955Z,6.80
2018-09-14T09:36:41.345Z,4.30
2018-09-14T09:39:11.968Z,4.62
2018-09-14T09:41:41.942Z,6.05
2018-09-14T09:44:11.506Z,5.55
2018-09-14T09:46:40.674Z,7.20
2018-09-14T09:49:09.913Z,4.25
2018-09-14T09:51:39.183Z,5.12
2018-09-14T09:54:08.393Z,6.15
2018-09-14T09:56:37.775Z,6.80
2018-09-14T09:59:07.074Z,5.08
2018-09-14T10:01:41.719Z,5.03
2018-09-14T10:04:16.230Z,6.00
2018-09-14T10:06:45.534Z,5.50
2018-09-14T10:09:14.898Z,3.80
2018-09-14T10:11:44.284Z,3.02
2018-09-14T10:14:13.547Z,6.97
2018-09-14T10:16:42.853Z,6.45
2018-09-14T10:19:11.792Z,6.22
2018-09-14T10:21:41.036Z,5.40
2018-09-14T10:24:10.277Z,3.80
2018-09-14T10:26:39.684Z,3.83
2018-09-14T10:29:09.947Z,2.47
2018-09-14T10:31:39.284Z,3.02
2018-09-14T10:34:08.641Z,3.77
2018-09-14T10:36:37.986Z,4.17
2018-09-14T10:39:09.045Z,4.00
2018-09-14T10:41:38.285Z,3.15
2018-09-14T10:44:07.704Z,3.72
2018-09-14T10:46:37.056Z,3.60
2018-09-14T10:49:06.395Z,2.92
2018-09-14T10:51:35.754Z,5.55
2018-09-14T10:54:05.135Z,2.42
2018-09-14T10:56:34.474Z,3.22
2018-09-14T10:59:03.688Z,2.58
2018-09-14T11:01:32.864Z,3.72
2018-09-14T11:04:02.009Z,2.58
2018-09-14T11:06:31.281Z,2.30
2018-09-14T11:09:00.513Z,1.92
2018-09-14T11:11:29.691Z,2.35
2018-09-14T11:13:59.169Z,2.65
2018-09-14T11:16:28.556Z,1.42
2018-09-14T11:18:57.916Z,2.98
2018-09-14T11:21:27.219Z,1.98
2018-09-14T11:23:56.466Z,3.52
2018-09-14T11:26:25.629Z,2.55
2018-09-14T11:28:54.853Z,2.08
2018-09-14T11:31:27.608Z,2.75
2018-09-14T11:33:57.557Z,3.45
2018-09-14T11:36:27.205Z,2.47
2018-09-14T11:38:56.551Z,2.35
2018-09-14T11:41:25.655Z,2.20
2018-09-14T11:43:54.942Z,4.05
2018-09-14T11:46:24.359Z,2.87
2018-09-14T11:48:53.572Z,2.62
2018-09-14T11:51:22.721Z,3.75
2018-09-14T11:53:52.097Z,3.87
2018-09-14T11:56:21.452Z,3.12
2018-09-14T11:58:50.769Z,2.30
2018-09-14T12:01:20.130Z,4.05
2018-09-14T12:03:49.386Z,2.27
2018-09-14T12:06:18.534Z,3.30
2018-09-14T12:08:47.842Z,3.00
2018-09-14T12:11:17.265Z,5.58
2018-09-14T12:13:46.582Z,2.85
2018-09-14T12:16:16.922Z,2.20
2018-09-14T12:18:46.232Z,2.50
2018-09-14T12:21:15.699Z,2.98
2018-09-14T12:23:44.791Z,2.35
2018-09-14T12:26:14.188Z,1.82
2018-09-14T12:28:43.558Z,3.05
2018-09-14T12:31:12.861Z,4.95
2018-09-14T12:33:42.331Z,2.10
2018-09-14T12:36:11.699Z,2.52
2018-09-14T12:38:41.004Z,2.55
2018-09-14T12:41:10.235Z,2.27
2018-09-14T12:43:39.437Z,3.17
2018-09-14T12:46:08.692Z,1.98
2018-09-14T12:48:37.918Z,3.92
2018-09-14T12:51:07.681Z,1.77
2018-09-14T12:53:37.076Z,2.65
2018-09-14T12:56:06.565Z,1.40
2018-09-14T12:58:35.907Z,1.40
2018-09-14T13:01:05.675Z,2.20
2018-09-14T13:03:35.177Z,1.72
2018-09-14T13:06:04.545Z,1.40
2018-09-14T13:08:33.973Z,1.40
2018-09-14T13:11:03.328Z,2.92
2018-09-14T13:13:32.864Z,3.58
2018-09-14T13:16:04.424Z,2.25
2018-09-14T13:18:33.577Z,1.12
2018-09-14T13:21:02.914Z,2.52
2018-09-14T13:23:32.268Z,2.25
2018-09-14T13:26:02.579Z,1.22
2018-09-14T13:28:31.814Z,1.70
2018-09-14T13:31:01.326Z,2.17
2018-09-14T13:33:37.449Z,3.00
2018-09-14T13:36:06.913Z,2.05
2018-09-14T13:38:36.140Z,1.52
2018-09-14T13:41:05.735Z,1.85
2018-09-14T13:43:34.975Z,1.20
2018-09-14T13:46:04.271Z,2.08
2018-09-14T13:48:33.553Z,2.20
2018-09-14T13:51:02.883Z,1.52
2018-09-14T13:53:32.183Z,2.70
2018-09-14T13:56:01.374Z,3.12
2018-09-14T13:58:30.572Z,2.30
2018-09-14T14:00:59.822Z,2.27
2018-09-14T14:03:29.064Z,1.98
2018-09-14T14:05:58.495Z,3.55
2018-09-14T14:08:27.706Z,2.80
2018-09-14T14:10:57.005Z,2.00
2018-09-14T14:13:26.408Z,1.80
2018-09-14T14:15:55.616Z,3.35
2018-09-14T14:18:24.795Z,2.72
2018-09-14T14:20:54.019Z,2.27
2018-09-14T14:23:23.894Z,2.75
2018-09-14T14:25:53.140Z,2.10
2018-09-14T14:28:22.370Z,2.55
2018-09-14T14:30:51.716Z,2.37
2018-09-14T14:33:21.251Z,3.22
2018-09-14T14:35:50.490Z,2.85
2018-09-14T14:38:19.877Z,2.40
2018-09-14T14:40:49.298Z,2.33
2018-09-14T14:43:18.646Z,1.70
2018-09-14T14:45:48.136Z,2.25
2018-09-14T14:48:17.593Z,1.50
2018-09-14T14:50:46.833Z,7.28
2018-09-14T14:53:16.230Z,3.55
2018-09-14T14:55:45.596Z,2.75
2018-09-14T14:58:14.886Z,1.32
2018-09-14T15:00:44.136Z,2.40
2018-09-14T15:03:13.538Z,2.80
2018-09-14T15:05:42.773Z,1.82
2018-09-14T15:08:11.887Z,2.08
2018-09-14T15:10:41.210Z,1.92
2018-09-14T15:13:10.458Z,1.90
2018-09-14T15:15:39.700Z,4.28
2018-09-14T15:18:09.139Z,1.35
2018-09-14T15:20:38.572Z,2.15
2018-09-14T15:23:07.814Z,1.50
2018-09-14T15:25:37.125Z,2.08
2018-09-14T15:28:06.678Z,2.87
2018-09-14T15:30:36.050Z,3.35
2018-09-14T15:33:05.219Z,3.80
2018-09-14T15:35:34.542Z,2.20
2018-09-14T15:38:03.954Z,2.22
2018-09-14T15:40:33.144Z,2.40
2018-09-14T15:43:02.334Z,1.70
2018-09-14T15:45:31.546Z,1.67
2018-09-14T15:48:00.640Z,3.25
2018-09-14T15:50:30.093Z,2.95
2018-09-14T15:52:59.244Z,2.75
2018-09-14T15:55:28.514Z,1.98
2018-09-14T15:57:57.855Z,2.20
2018-09-14T16:00:27.238Z,4.17
2018-09-14T16:02:56.459Z,2.67
2018-09-14T16:05:25.813Z,1.87
2018-09-14T16:07:55.128Z,2.58
2018-09-14T16:10:24.459Z,2.00
2018-09-14T16:12:53.891Z,3.50
2018-09-14T16:15:24.242Z,2.52
2018-09-14T16:17:53.817Z,2.25
2018-09-14T16:20:23.273Z,2.33
2018-09-14T16:22:52.705Z,2.00
2018-09-14T16:25:22.088Z,1.90
2018-09-14T16:27:51.525Z,3.77
2018-09-14T16:30:21.024Z,2.35
2018-09-14T16:32:50.752Z,2.45
2018-09-14T16:35:20.169Z,2.00
2018-09-14T16:37:49.510Z,2.50
2018-09-14T16:40:18.756Z,2.67
2018-09-14T16:42:48.151Z,2.03
2018-09-14T16:45:17.552Z,1.67
2018-09-14T16:47:46.904Z,2.87
2018-09-14T16:50:16.356Z,1.97
2018-09-14T16:52:45.729Z,1.47
2018-09-14T16:55:14.981Z,2.17
2018-09-14T16:57:44.265Z,1.43
2018-09-14T17:00:13.562Z,2.33
2018-09-14T17:02:42.814Z,1.97
2018-09-14T17:05:12.171Z,3.57
2018-09-14T17:07:47.768Z,2.20
2018-09-14T17:10:16.944Z,1.93
2018-09-14T17:12:46.359Z,1.40
2018-09-14T17:15:15.856Z,1.17
2018-09-14T17:17:44.730Z,2.17
2018-09-14T17:20:13.889Z,1.60
2018-09-14T17:22:43.393Z,1.67
2018-09-14T17:25:12.599Z,2.00
2018-09-14T17:27:41.879Z,2.13
2018-09-14T17:31:13.971Z,1.80
2018-09-14T17:33:43.757Z,1.70
2018-09-14T17:36:12.980Z,1.50
2018-09-14T17:38:42.330Z,1.50
2018-09-14T17:41:11.518Z,1.30
2018-09-14T17:43:40.770Z,1.17
2018-09-14T17:46:10.010Z,2.00
2018-09-14T17:48:39.361Z,1.43
2018-09-14T17:51:08.730Z,2.27
2018-09-14T17:53:37.865Z,1.67
2018-09-14T17:56:07.238Z,2.50
2018-09-14T17:58:36.469Z,2.43
2018-09-14T18:01:06.825Z,1.70
2018-09-14T18:03:36.154Z,1.77
2018-09-14T18:06:08.339Z,1.77
2018-09-14T18:08:37.708Z,1.73
2018-09-14T18:11:07.002Z,1.73
2018-09-14T18:13:36.251Z,2.00
2018-09-14T18:16:05.675Z,3.03
2018-09-14T18:18:34.928Z,1.90
2018-09-14T18:21:04.114Z,2.90
2018-09-14T18:23:33.356Z,1.73
2018-09-14T18:26:02.653Z,2.10
2018-09-14T18:28:31.842Z,1.80
2018-09-14T18:31:01.112Z,2.20
2018-09-14T18:33:31.676Z,3.63
2018-09-14T18:36:02.518Z,1.93
2018-09-14T18:38:33.327Z,1.90
2018-09-14T18:41:04.014Z,2.40
2018-09-14T18:43:35.348Z,1.70
2018-09-14T18:46:05.303Z,1.60
2018-09-14T18:48:35.534Z,2.23
2018-09-14T18:51:06.324Z,1.30
2018-09-14T18:53:36.505Z,1.83
2018-09-14T18:56:07.638Z,1.90
2018-09-14T18:58:38.186Z,1.80
2018-09-14T19:01:08.586Z,1.83
2018-09-14T19:03:38.595Z,1.63
2018-09-14T19:06:08.975Z,2.10
2018-09-14T19:08:38.737Z,2.40
2018-09-14T19:11:09.330Z,3.30
2018-09-14T19:13:39.673Z,2.80
2018-09-14T19:16:11.302Z,2.67
2018-09-14T19:18:48.007Z,2.50
2018-09-14T19:21:18.012Z,2.00
2018-09-14T19:23:49.526Z,2.10
2018-09-14T19:26:20.461Z,2.20
2018-09-14T19:28:53.043Z,2.00
2018-09-14T19:31:23.091Z,2.07
2018-09-14T19:33:57.882Z,2.03
2018-09-14T19:36:30.161Z,2.10
2018-09-14T19:39:00.962Z,2.67
2018-09-14T19:41:32.018Z,2.57
2018-09-14T19:44:03.071Z,2.57
2018-09-14T19:46:33.895Z,3.03
2018-09-14T19:49:04.118Z,3.97
2018-09-14T19:51:35.041Z,2.53
2018-09-14T19:54:05.516Z,3.60
2018-09-14T19:56:37.010Z,2.60
2018-09-14T19:59:07.875Z,5.10
2018-09-14T20:01:38.282Z,3.83
2018-09-14T20:04:08.395Z,3.40
2018-09-14T20:06:38.227Z,4.30
2018-09-14T20:09:12.109Z,4.67
2018-09-14T20:11:42.271Z,3.80
2018-09-14T20:14:13.075Z,2.97
2018-09-14T20:16:42.671Z,2.77
2018-09-14T20:19:12.976Z,2.87
2018-09-14T20:21:42.693Z,3.43
2018-09-14T20:24:15.103Z,2.50
2018-09-14T20:26:45.013Z,2.63
2018-09-14T20:29:14.735Z,2.87
2018-09-14T20:31:44.097Z,2.80
2018-09-14T20:34:13.948Z,2.70
2018-09-14T20:36:45.231Z,3.10
2018-09-14T20:39:15.138Z,4.00
2018-09-14T20:41:46.127Z,4.70
2018-09-14T20:44:16.237Z,4.33
2018-09-14T20:46:46.499Z,3.60
2018-09-14T20:49:17.381Z,3.80
2018-09-14T20:51:48.096Z,3.47
2018-09-14T20:54:17.389Z,3.53
2018-09-14T20:56:47.276Z,3.83
2018-09-14T20:59:17.088Z,2.77
2018-09-14T21:01:47.522Z,3.30
2018-09-14T21:04:17.349Z,3.30
2018-09-14T21:06:47.797Z,3.40
2018-09-14T21:09:17.185Z,3.30
2018-09-14T21:11:46.452Z,4.13
2018-09-14T21:14:16.517Z,3.37
2018-09-14T21:16:45.857Z,3.90
2018-09-14T21:19:15.030Z,4.17
2018-09-14T21:21:44.329Z,4.70
2018-09-14T21:24:13.657Z,3.80
2018-09-14T21:26:45.435Z,4.20
2018-09-14T21:29:15.838Z,5.00
2018-09-14T21:31:45.023Z,4.40
2018-09-14T21:34:14.321Z,4.73
2018-09-14T21:36:43.711Z,4.73
2018-09-14T21:39:13.327Z,3.77
2018-09-14T21:41:42.547Z,6.63
2018-09-14T21:44:11.912Z,6.57
2018-09-14T21:46:41.007Z,5.43
2018-09-14T21:49:10.242Z,6.23
2018-09-14T21:51:39.699Z,6.27
2018-09-14T21:54:09.246Z,5.53
2018-09-14T21:56:38.494Z,6.13
2018-09-14T21:59:07.780Z,6.03
2018-09-14T22:01:37.655Z,6.90
2018-09-14T22:04:06.968Z,5.63
2018-09-14T22:06:36.249Z,7.07
2018-09-14T22:09:08.145Z,6.60
2018-09-14T22:11:37.728Z,5.10
2018-09-14T22:14:07.056Z,5.97
2018-09-14T22:16:36.412Z,5.10
2018-09-14T22:19:05.686Z,6.23
2018-09-14T22:21:35.022Z,6.80
2018-09-14T22:24:05.140Z,6.00
2018-09-14T22:26:34.415Z,4.93
2018-09-14T22:29:03.734Z,5.90
2018-09-14T22:32:03.694Z,4.90
2018-09-14T22:34:32.868Z,7.03
2018-09-14T22:37:01.980Z,4.80
2018-09-14T22:39:31.151Z,4.87
2018-09-14T22:42:00.287Z,4.60
2018-09-14T22:44:29.369Z,4.47
2018-09-14T22:46:58.580Z,4.53
2018-09-14T22:49:28.031Z,3.97
2018-09-14T22:51:57.517Z,3.50
2018-09-14T22:54:26.834Z,4.57
2018-09-14T22:56:56.155Z,4.53
2018-09-14T22:59:25.555Z,5.50
2018-09-14T23:01:54.776Z,4.83
2018-09-14T23:04:24.469Z,5.63
2018-09-14T23:06:53.553Z,3.87
2018-09-14T23:09:22.803Z,3.80
2018-09-14T23:11:51.997Z,3.70
2018-09-14T23:14:21.167Z,3.60
2018-09-14T23:16:50.304Z,3.60
2018-09-14T23:19:19.688Z,3.50
2018-09-14T23:21:49.130Z,3.87
2018-09-14T23:24:18.367Z,3.63
2018-09-14T23:26:47.615Z,4.17
2018-09-14T23:29:16.834Z,3.93
2018-09-14T23:31:46.092Z,4.00
2018-09-14T23:34:15.483Z,4.33
2018-09-14T23:36:44.779Z,4.70
2018-09-14T23:39:14.958Z,3.97
2018-09-14T23:41:44.261Z,5.07
2018-09-14T23:44:13.676Z,4.57
2018-09-14T23:46:42.973Z,3.93
2018-09-14T23:49:12.288Z,4.83
2018-09-14T23:51:41.510Z,4.70
2018-09-14T23:54:10.670Z,5.37
2018-09-14T23:56:39.867Z,4.77
2018-09-14T23:59:09.207Z,7.23
